Terminal Aerodrome Forecast
Issued by NWS Brownsville, TX

Home | Current Version | Previous Version | Text Only | Print | Product List | Glossary On
Versions: 1 2 3 4 5 6 7 8 9 10 11 12 13 14 15 16 17 18
000
FTUS44 KBRO 272326
TAFBRO
TAF
KBRO 272326Z 2800/2824 04008KT P6SM FEW030 BKN080
     FM280100 03006KT P6SM BKN025
     FM280600 31008KT 4SM BR OVC015
     FM281300 28010KT 5SM BR OVC015=

USA.gov is the U.S. government's official web portal to all federal, state and local government web resources and services.